sensor_id;sensor_type;location;lat;lon;timestamp;P1;durP1;ratioP1;P2;durP2;ratioP2
47804;SDS011;33568;45.286;9.900;2023-06-22T00:00:56;8.82;;;5.53;;
47804;SDS011;33568;45.286;9.900;2023-06-22T00:03:23;11.38;;;7.05;;
47804;SDS011;33568;45.286;9.900;2023-06-22T00:05:50;8.50;;;6.03;;
47804;SDS011;33568;45.286;9.900;2023-06-22T00:08:17;8.55;;;5.72;;
47804;SDS011;33568;45.286;9.900;2023-06-22T00:10:44;11.50;;;6.43;;
47804;SDS011;33568;45.286;9.900;2023-06-22T00:13:12;10.60;;;5.95;;
47804;SDS011;33568;45.286;9.900;2023-06-22T00:15:40;10.52;;;6.50;;
47804;SDS011;33568;45.286;9.900;2023-06-22T00:18:08;10.05;;;6.05;;
47804;SDS011;33568;45.286;9.900;2023-06-22T00:20:35;9.32;;;6.07;;
47804;SDS011;33568;45.286;9.900;2023-06-22T00:23:06;11.32;;;6.05;;
47804;SDS011;33568;45.286;9.900;2023-06-22T00:25:36;8.40;;;6.80;;
47804;SDS011;33568;45.286;9.900;2023-06-22T00:28:03;10.10;;;6.50;;
47804;SDS011;33568;45.286;9.900;2023-06-22T00:30:31;10.90;;;6.25;;
47804;SDS011;33568;45.286;9.900;2023-06-22T00:32:58;8.52;;;5.95;;
47804;SDS011;33568;45.286;9.900;2023-06-22T00:35:25;8.38;;;6.43;;
47804;SDS011;33568;45.286;9.900;2023-06-22T00:37:56;8.93;;;6.70;;
47804;SDS011;33568;45.286;9.900;2023-06-22T00:40:27;8.32;;;6.45;;
47804;SDS011;33568;45.286;9.900;2023-06-22T00:42:57;8.93;;;6.32;;
47804;SDS011;33568;45.286;9.900;2023-06-22T00:45:24;9.68;;;6.57;;
47804;SDS011;33568;45.286;9.900;2023-06-22T00:47:52;8.20;;;6.53;;
47804;SDS011;33568;45.286;9.900;2023-06-22T00:50:20;9.30;;;6.55;;
47804;SDS011;33568;45.286;9.900;2023-06-22T00:52:50;11.77;;;8.05;;
47804;SDS011;33568;45.286;9.900;2023-06-22T00:55:18;8.27;;;6.10;;
47804;SDS011;33568;45.286;9.900;2023-06-22T00:57:46;6.90;;;6.18;;
47804;SDS011;33568;45.286;9.900;2023-06-22T01:00:17;8.90;;;6.50;;
47804;SDS011;33568;45.286;9.900;2023-06-22T01:02:45;11.88;;;6.85;;
47804;SDS011;33568;45.286;9.900;2023-06-22T01:05:13;10.75;;;6.07;;
47804;SDS011;33568;45.286;9.900;2023-06-22T01:16:03;8.57;;;6.40;;
47804;SDS011;33568;45.286;9.900;2023-06-22T01:18:35;9.85;;;6.78;;
47804;SDS011;33568;45.286;9.900;2023-06-22T01:21:04;7.53;;;6.57;;
47804;SDS011;33568;45.286;9.900;2023-06-22T01:26:06;8.88;;;6.68;;
47804;SDS011;33568;45.286;9.900;2023-06-22T01:28:46;10.05;;;6.82;;
47804;SDS011;33568;45.286;9.900;2023-06-22T01:31:18;8.00;;;6.90;;
47804;SDS011;33568;45.286;9.900;2023-06-22T01:33:51;10.95;;;6.35;;
47804;SDS011;33568;45.286;9.900;2023-06-22T01:36:21;9.98;;;6.72;;
47804;SDS011;33568;45.286;9.900;2023-06-22T01:38:48;8.20;;;6.25;;
47804;SDS011;33568;45.286;9.900;2023-06-22T01:41:19;7.40;;;6.63;;
47804;SDS011;33568;45.286;9.900;2023-06-22T01:43:46;8.30;;;6.80;;
47804;SDS011;33568;45.286;9.900;2023-06-22T01:46:14;9.38;;;6.90;;
47804;SDS011;33568;45.286;9.900;2023-06-22T01:48:41;10.63;;;8.60;;
47804;SDS011;33568;45.286;9.900;2023-06-22T01:51:08;10.98;;;6.78;;
47804;SDS011;33568;45.286;9.900;2023-06-22T01:53:35;9.98;;;6.43;;
47804;SDS011;33568;45.286;9.900;2023-06-22T01:56:01;8.93;;;7.00;;
47804;SDS011;33568;45.286;9.900;2023-06-22T01:58:29;11.20;;;6.72;;
47804;SDS011;33568;45.286;9.900;2023-06-22T02:00:58;9.85;;;7.60;;
47804;SDS011;33568;45.286;9.900;2023-06-22T02:03:36;12.63;;;6.68;;
47804;SDS011;33568;45.286;9.900;2023-06-22T02:06:08;8.27;;;6.80;;
47804;SDS011;33568;45.286;9.900;2023-06-22T02:08:49;11.18;;;8.55;;
47804;SDS011;33568;45.286;9.900;2023-06-22T02:11:21;18.87;;;13.73;;
47804;SDS011;33568;45.286;9.900;2023-06-22T02:13:49;11.63;;;9.23;;
47804;SDS011;33568;45.286;9.900;2023-06-22T02:16:17;13.60;;;9.77;;
47804;SDS011;33568;45.286;9.900;2023-06-22T02:18:48;13.00;;;7.90;;
47804;SDS011;33568;45.286;9.900;2023-06-22T02:21:19;12.35;;;7.30;;
47804;SDS011;33568;45.286;9.900;2023-06-22T02:23:46;12.05;;;8.30;;
47804;SDS011;33568;45.286;9.900;2023-06-22T02:26:13;10.60;;;7.80;;
47804;SDS011;33568;45.286;9.900;2023-06-22T02:28:41;11.20;;;7.93;;
47804;SDS011;33568;45.286;9.900;2023-06-22T02:31:08;9.38;;;7.28;;
47804;SDS011;33568;45.286;9.900;2023-06-22T02:33:35;10.32;;;7.25;;
47804;SDS011;33568;45.286;9.900;2023-06-22T02:36:01;10.35;;;7.88;;
47804;SDS011;33568;45.286;9.900;2023-06-22T02:38:31;9.23;;;7.97;;
47804;SDS011;33568;45.286;9.900;2023-06-22T02:41:02;8.05;;;6.70;;
47804;SDS011;33568;45.286;9.900;2023-06-22T02:43:29;13.18;;;10.05;;
47804;SDS011;33568;45.286;9.900;2023-06-22T02:45:55;9.45;;;8.50;;
47804;SDS011;33568;45.286;9.900;2023-06-22T02:48:22;11.05;;;7.97;;
47804;SDS011;33568;45.286;9.900;2023-06-22T02:50:48;12.20;;;8.00;;
47804;SDS011;33568;45.286;9.900;2023-06-22T02:53:15;11.50;;;8.00;;
47804;SDS011;33568;45.286;9.900;2023-06-22T02:55:45;12.63;;;7.38;;
47804;SDS011;33568;45.286;9.900;2023-06-22T02:58:12;12.00;;;8.43;;
47804;SDS011;33568;45.286;9.900;2023-06-22T03:00:38;10.25;;;7.53;;
47804;SDS011;33568;45.286;9.900;2023-06-22T03:03:05;8.70;;;7.22;;
47804;SDS011;33568;45.286;9.900;2023-06-22T03:05:32;11.07;;;7.93;;
47804;SDS011;33568;45.286;9.900;2023-06-22T03:07:59;10.68;;;7.65;;
47804;SDS011;33568;45.286;9.900;2023-06-22T03:10:29;9.95;;;8.80;;
47804;SDS011;33568;45.286;9.900;2023-06-22T03:12:56;15.32;;;10.95;;
47804;SDS011;33568;45.286;9.900;2023-06-22T03:15:22;16.75;;;12.10;;
47804;SDS011;33568;45.286;9.900;2023-06-22T03:17:50;11.13;;;8.63;;
47804;SDS011;33568;45.286;9.900;2023-06-22T03:20:16;9.45;;;7.45;;
47804;SDS011;33568;45.286;9.900;2023-06-22T03:22:43;10.98;;;7.68;;
47804;SDS011;33568;45.286;9.900;2023-06-22T03:25:11;15.15;;;8.10;;
47804;SDS011;33568;45.286;9.900;2023-06-22T03:27:42;9.52;;;8.02;;
47804;SDS011;33568;45.286;9.900;2023-06-22T03:30:11;11.10;;;8.13;;
47804;SDS011;33568;45.286;9.900;2023-06-22T03:32:38;12.20;;;8.50;;
47804;SDS011;33568;45.286;9.900;2023-06-22T03:35:06;9.75;;;8.02;;
47804;SDS011;33568;45.286;9.900;2023-06-22T03:37:35;10.02;;;7.50;;
47804;SDS011;33568;45.286;9.900;2023-06-22T03:40:02;19.00;;;11.13;;
47804;SDS011;33568;45.286;9.900;2023-06-22T03:42:33;10.80;;;8.45;;
47804;SDS011;33568;45.286;9.900;2023-06-22T03:45:02;11.45;;;8.57;;
47804;SDS011;33568;45.286;9.900;2023-06-22T03:47:31;17.13;;;8.80;;
47804;SDS011;33568;45.286;9.900;2023-06-22T03:49:58;11.40;;;9.38;;
47804;SDS011;33568;45.286;9.900;2023-06-22T03:52:25;12.43;;;9.52;;
47804;SDS011;33568;45.286;9.900;2023-06-22T03:54:51;17.02;;;11.10;;
47804;SDS011;33568;45.286;9.900;2023-06-22T03:57:18;11.98;;;8.48;;
47804;SDS011;33568;45.286;9.900;2023-06-22T03:59:44;9.80;;;8.73;;
47804;SDS011;33568;45.286;9.900;2023-06-22T04:02:11;14.18;;;9.40;;
47804;SDS011;33568;45.286;9.900;2023-06-22T04:04:38;9.40;;;8.05;;
47804;SDS011;33568;45.286;9.900;2023-06-22T04:07:05;13.43;;;8.35;;
47804;SDS011;33568;45.286;9.900;2023-06-22T04:09:31;15.32;;;8.77;;
47804;SDS011;33568;45.286;9.900;2023-06-22T04:11:58;12.55;;;8.23;;
47804;SDS011;33568;45.286;9.900;2023-06-22T04:14:24;13.45;;;8.30;;
47804;SDS011;33568;45.286;9.900;2023-06-22T04:16:51;9.82;;;8.30;;
47804;SDS011;33568;45.286;9.900;2023-06-22T04:19:17;12.93;;;8.23;;
47804;SDS011;33568;45.286;9.900;2023-06-22T04:21:44;15.20;;;8.25;;
47804;SDS011;33568;45.286;9.900;2023-06-22T04:24:11;9.98;;;8.02;;
47804;SDS011;33568;45.286;9.900;2023-06-22T04:26:37;19.80;;;12.23;;
47804;SDS011;33568;45.286;9.900;2023-06-22T04:29:07;11.82;;;7.82;;
47804;SDS011;33568;45.286;9.900;2023-06-22T04:31:37;10.07;;;7.70;;
47804;SDS011;33568;45.286;9.900;2023-06-22T04:34:04;12.05;;;7.55;;
47804;SDS011;33568;45.286;9.900;2023-06-22T04:36:41;9.43;;;7.55;;
47804;SDS011;33568;45.286;9.900;2023-06-22T04:39:08;14.98;;;7.50;;
47804;SDS011;33568;45.286;9.900;2023-06-22T04:41:38;9.23;;;6.82;;
47804;SDS011;33568;45.286;9.900;2023-06-22T04:46:39;11.38;;;9.48;;
47804;SDS011;33568;45.286;9.900;2023-06-22T04:49:06;10.75;;;9.65;;
47804;SDS011;33568;45.286;9.900;2023-06-22T04:51:37;9.80;;;7.40;;
47804;SDS011;33568;45.286;9.900;2023-06-22T04:54:05;9.82;;;7.30;;
47804;SDS011;33568;45.286;9.900;2023-06-22T04:56:32;8.10;;;6.65;;
47804;SDS011;33568;45.286;9.900;2023-06-22T04:58:59;9.85;;;6.68;;
47804;SDS011;33568;45.286;9.900;2023-06-22T05:01:26;8.38;;;6.22;;
47804;SDS011;33568;45.286;9.900;2023-06-22T05:03:52;9.57;;;7.60;;
47804;SDS011;33568;45.286;9.900;2023-06-22T05:06:23;8.10;;;6.63;;
47804;SDS011;33568;45.286;9.900;2023-06-22T05:08:56;9.57;;;6.68;;
47804;SDS011;33568;45.286;9.900;2023-06-22T05:11:26;11.10;;;6.95;;
47804;SDS011;33568;45.286;9.900;2023-06-22T05:13:53;8.57;;;6.55;;
47804;SDS011;33568;45.286;9.900;2023-06-22T05:16:20;11.90;;;6.35;;
47804;SDS011;33568;45.286;9.900;2023-06-22T05:18:51;8.43;;;6.05;;
47804;SDS011;33568;45.286;9.900;2023-06-22T05:21:22;9.82;;;6.35;;
47804;SDS011;33568;45.286;9.900;2023-06-22T05:23:50;9.52;;;6.38;;
47804;SDS011;33568;45.286;9.900;2023-06-22T05:26:18;7.40;;;5.85;;
47804;SDS011;33568;45.286;9.900;2023-06-22T05:28:45;10.30;;;5.65;;
47804;SDS011;33568;45.286;9.900;2023-06-22T05:31:15;7.40;;;5.57;;
47804;SDS011;33568;45.286;9.900;2023-06-22T05:33:43;7.95;;;5.70;;
47804;SDS011;33568;45.286;9.900;2023-06-22T05:36:09;8.30;;;5.93;;
47804;SDS011;33568;45.286;9.900;2023-06-22T05:38:36;9.52;;;5.80;;
47804;SDS011;33568;45.286;9.900;2023-06-22T05:41:03;8.15;;;5.13;;
47804;SDS011;33568;45.286;9.900;2023-06-22T05:43:29;7.15;;;5.43;;
47804;SDS011;33568;45.286;9.900;2023-06-22T05:45:56;9.35;;;5.53;;
47804;SDS011;33568;45.286;9.900;2023-06-22T05:48:23;10.45;;;6.20;;
47804;SDS011;33568;45.286;9.900;2023-06-22T05:50:50;7.18;;;6.10;;
47804;SDS011;33568;45.286;9.900;2023-06-22T05:53:16;14.95;;;10.68;;
47804;SDS011;33568;45.286;9.900;2023-06-22T05:55:43;9.93;;;6.05;;
47804;SDS011;33568;45.286;9.900;2023-06-22T05:58:10;14.07;;;8.18;;
47804;SDS011;33568;45.286;9.900;2023-06-22T06:00:36;9.40;;;6.47;;
47804;SDS011;33568;45.286;9.900;2023-06-22T06:03:03;12.18;;;8.77;;
47804;SDS011;33568;45.286;9.900;2023-06-22T06:05:30;8.43;;;5.95;;
47804;SDS011;33568;45.286;9.900;2023-06-22T06:07:57;9.18;;;6.07;;
47804;SDS011;33568;45.286;9.900;2023-06-22T06:10:24;11.68;;;9.77;;
47804;SDS011;33568;45.286;9.900;2023-06-22T06:12:51;8.73;;;6.65;;
47804;SDS011;33568;45.286;9.900;2023-06-22T06:15:18;12.85;;;6.40;;
47804;SDS011;33568;45.286;9.900;2023-06-22T06:17:45;10.00;;;5.63;;
47804;SDS011;33568;45.286;9.900;2023-06-22T06:20:18;9.45;;;6.97;;
47804;SDS011;33568;45.286;9.900;2023-06-22T06:22:45;8.25;;;6.20;;
47804;SDS011;33568;45.286;9.900;2023-06-22T06:25:12;9.07;;;7.28;;
47804;SDS011;33568;45.286;9.900;2023-06-22T06:27:42;9.15;;;7.00;;
47804;SDS011;33568;45.286;9.900;2023-06-22T06:30:10;11.55;;;9.75;;
47804;SDS011;33568;45.286;9.900;2023-06-22T06:32:37;10.50;;;6.22;;
47804;SDS011;33568;45.286;9.900;2023-06-22T06:35:05;13.77;;;12.02;;
47804;SDS011;33568;45.286;9.900;2023-06-22T06:37:35;8.48;;;6.50;;
47804;SDS011;33568;45.286;9.900;2023-06-22T06:40:03;10.30;;;8.70;;
47804;SDS011;33568;45.286;9.900;2023-06-22T06:42:33;13.27;;;8.90;;
47804;SDS011;33568;45.286;9.900;2023-06-22T06:44:59;10.00;;;7.13;;
47804;SDS011;33568;45.286;9.900;2023-06-22T06:47:25;9.70;;;7.50;;
47804;SDS011;33568;45.286;9.900;2023-06-22T06:49:52;8.23;;;6.55;;
47804;SDS011;33568;45.286;9.900;2023-06-22T06:52:18;14.27;;;8.98;;
47804;SDS011;33568;45.286;9.900;2023-06-22T06:54:45;25.38;;;13.75;;
47804;SDS011;33568;45.286;9.900;2023-06-22T06:57:12;26.77;;;13.23;;
47804;SDS011;33568;45.286;9.900;2023-06-22T06:59:39;29.50;;;15.43;;
47804;SDS011;33568;45.286;9.900;2023-06-22T07:02:05;21.58;;;14.57;;
47804;SDS011;33568;45.286;9.900;2023-06-22T07:04:32;19.67;;;14.48;;
47804;SDS011;33568;45.286;9.900;2023-06-22T07:07:00;21.88;;;17.65;;
47804;SDS011;33568;45.286;9.900;2023-06-22T07:09:27;31.75;;;18.83;;
47804;SDS011;33568;45.286;9.900;2023-06-22T07:11:54;26.92;;;19.20;;
47804;SDS011;33568;45.286;9.900;2023-06-22T07:14:20;24.02;;;18.67;;
47804;SDS011;33568;45.286;9.900;2023-06-22T07:16:47;27.10;;;19.10;;
47804;SDS011;33568;45.286;9.900;2023-06-22T07:19:13;21.23;;;17.88;;
47804;SDS011;33568;45.286;9.900;2023-06-22T07:21:40;26.58;;;17.27;;
47804;SDS011;33568;45.286;9.900;2023-06-22T07:24:06;28.33;;;21.17;;
47804;SDS011;33568;45.286;9.900;2023-06-22T07:26:33;27.90;;;19.00;;
47804;SDS011;33568;45.286;9.900;2023-06-22T07:29:00;24.40;;;18.92;;
47804;SDS011;33568;45.286;9.900;2023-06-22T07:31:26;28.13;;;17.70;;
47804;SDS011;33568;45.286;9.900;2023-06-22T07:33:53;28.13;;;17.27;;
47804;SDS011;33568;45.286;9.900;2023-06-22T07:36:19;26.73;;;19.30;;
47804;SDS011;33568;45.286;9.900;2023-06-22T07:38:46;25.33;;;19.05;;
47804;SDS011;33568;45.286;9.900;2023-06-22T07:41:12;22.38;;;19.35;;
47804;SDS011;33568;45.286;9.900;2023-06-22T07:43:39;33.78;;;19.35;;
47804;SDS011;33568;45.286;9.900;2023-06-22T07:46:06;21.02;;;15.57;;
47804;SDS011;33568;45.286;9.900;2023-06-22T07:48:32;23.45;;;14.10;;
47804;SDS011;33568;45.286;9.900;2023-06-22T07:51:02;18.33;;;11.98;;
47804;SDS011;33568;45.286;9.900;2023-06-22T07:53:28;22.10;;;14.43;;
47804;SDS011;33568;45.286;9.900;2023-06-22T07:55:55;19.98;;;13.85;;
47804;SDS011;33568;45.286;9.900;2023-06-22T07:58:21;23.85;;;15.88;;
47804;SDS011;33568;45.286;9.900;2023-06-22T08:00:48;19.98;;;16.00;;
47804;SDS011;33568;45.286;9.900;2023-06-22T08:03:15;23.98;;;20.05;;
47804;SDS011;33568;45.286;9.900;2023-06-22T08:05:41;21.90;;;12.50;;
47804;SDS011;33568;45.286;9.900;2023-06-22T08:08:08;20.98;;;16.15;;
47804;SDS011;33568;45.286;9.900;2023-06-22T08:10:34;41.05;;;23.88;;
47804;SDS011;33568;45.286;9.900;2023-06-22T08:13:01;29.92;;;21.90;;
47804;SDS011;33568;45.286;9.900;2023-06-22T08:15:28;17.73;;;14.43;;
47804;SDS011;33568;45.286;9.900;2023-06-22T08:17:55;30.35;;;22.42;;
47804;SDS011;33568;45.286;9.900;2023-06-22T08:20:21;17.17;;;12.20;;
47804;SDS011;33568;45.286;9.900;2023-06-22T08:22:48;27.15;;;21.23;;
47804;SDS011;33568;45.286;9.900;2023-06-22T08:25:14;20.80;;;17.65;;
47804;SDS011;33568;45.286;9.900;2023-06-22T08:27:44;28.58;;;17.70;;
47804;SDS011;33568;45.286;9.900;2023-06-22T08:30:14;21.75;;;14.50;;
47804;SDS011;33568;45.286;9.900;2023-06-22T08:32:41;26.50;;;19.73;;
47804;SDS011;33568;45.286;9.900;2023-06-22T08:35:07;19.00;;;16.65;;
47804;SDS011;33568;45.286;9.900;2023-06-22T08:37:35;24.35;;;21.73;;
47804;SDS011;33568;45.286;9.900;2023-06-22T08:40:03;27.48;;;20.35;;
47804;SDS011;33568;45.286;9.900;2023-06-22T08:42:32;41.00;;;26.40;;
47804;SDS011;33568;45.286;9.900;2023-06-22T08:44:59;34.70;;;23.88;;
47804;SDS011;33568;45.286;9.900;2023-06-22T08:47:29;31.92;;;23.60;;
47804;SDS011;33568;45.286;9.900;2023-06-22T08:49:55;30.02;;;23.88;;
47804;SDS011;33568;45.286;9.900;2023-06-22T08:52:22;30.27;;;23.05;;
47804;SDS011;33568;45.286;9.900;2023-06-22T08:54:49;25.90;;;23.02;;
47804;SDS011;33568;45.286;9.900;2023-06-22T08:57:17;17.25;;;12.73;;
47804;SDS011;33568;45.286;9.900;2023-06-22T08:59:43;27.88;;;18.98;;
47804;SDS011;33568;45.286;9.900;2023-06-22T09:02:10;27.25;;;19.60;;
47804;SDS011;33568;45.286;9.900;2023-06-22T09:04:36;24.67;;;18.10;;
47804;SDS011;33568;45.286;9.900;2023-06-22T09:07:03;26.02;;;16.52;;
47804;SDS011;33568;45.286;9.900;2023-06-22T09:09:29;28.73;;;20.98;;
47804;SDS011;33568;45.286;9.900;2023-06-22T09:11:56;23.88;;;18.15;;
47804;SDS011;33568;45.286;9.900;2023-06-22T09:14:22;26.77;;;18.25;;
47804;SDS011;33568;45.286;9.900;2023-06-22T09:16:49;31.48;;;18.00;;
47804;SDS011;33568;45.286;9.900;2023-06-22T09:19:15;24.92;;;14.45;;
47804;SDS011;33568;45.286;9.900;2023-06-22T09:21:42;11.50;;;8.57;;
47804;SDS011;33568;45.286;9.900;2023-06-22T09:24:08;10.70;;;7.15;;
47804;SDS011;33568;45.286;9.900;2023-06-22T09:26:35;25.63;;;16.67;;
47804;SDS011;33568;45.286;9.900;2023-06-22T09:29:01;28.15;;;17.98;;
47804;SDS011;33568;45.286;9.900;2023-06-22T09:31:31;13.25;;;10.00;;
47804;SDS011;33568;45.286;9.900;2023-06-22T09:33:57;27.58;;;16.55;;
47804;SDS011;33568;45.286;9.900;2023-06-22T09:36:24;28.38;;;16.05;;
47804;SDS011;33568;45.286;9.900;2023-06-22T09:38:50;298.77;;;30.00;;
47804;SDS011;33568;45.286;9.900;2023-06-22T09:41:25;20.45;;;13.77;;
47804;SDS011;33568;45.286;9.900;2023-06-22T09:43:51;20.63;;;13.93;;
47804;SDS011;33568;45.286;9.900;2023-06-22T09:46:18;26.15;;;14.00;;
47804;SDS011;33568;45.286;9.900;2023-06-22T09:48:47;16.58;;;12.38;;
47804;SDS011;33568;45.286;9.900;2023-06-22T09:51:13;26.08;;;13.93;;
47804;SDS011;33568;45.286;9.900;2023-06-22T09:53:40;33.17;;;13.13;;
47804;SDS011;33568;45.286;9.900;2023-06-22T09:56:07;26.92;;;15.35;;
47804;SDS011;33568;45.286;9.900;2023-06-22T09:58:37;89.93;;;17.83;;
47804;SDS011;33568;45.286;9.900;2023-06-22T10:01:03;31.63;;;17.90;;
47804;SDS011;33568;45.286;9.900;2023-06-22T10:03:29;27.98;;;19.05;;
47804;SDS011;33568;45.286;9.900;2023-06-22T10:05:56;26.38;;;17.52;;
47804;SDS011;33568;45.286;9.900;2023-06-22T10:08:22;29.15;;;17.75;;
47804;SDS011;33568;45.286;9.900;2023-06-22T10:10:49;30.08;;;18.38;;
47804;SDS011;33568;45.286;9.900;2023-06-22T10:13:15;23.83;;;18.33;;
47804;SDS011;33568;45.286;9.900;2023-06-22T10:15:41;23.30;;;12.38;;
47804;SDS011;33568;45.286;9.900;2023-06-22T10:18:08;24.27;;;17.33;;
47804;SDS011;33568;45.286;9.900;2023-06-22T10:20:34;25.63;;;14.77;;
47804;SDS011;33568;45.286;9.900;2023-06-22T10:23:01;21.85;;;14.93;;
47804;SDS011;33568;45.286;9.900;2023-06-22T10:25:28;30.30;;;21.38;;
47804;SDS011;33568;45.286;9.900;2023-06-22T10:27:54;30.63;;;17.42;;
47804;SDS011;33568;45.286;9.900;2023-06-22T10:30:21;30.02;;;20.90;;
47804;SDS011;33568;45.286;9.900;2023-06-22T10:32:47;34.78;;;22.02;;
47804;SDS011;33568;45.286;9.900;2023-06-22T10:35:13;27.90;;;18.63;;
47804;SDS011;33568;45.286;9.900;2023-06-22T10:37:45;25.20;;;17.05;;
47804;SDS011;33568;45.286;9.900;2023-06-22T10:40:15;22.88;;;12.70;;
47804;SDS011;33568;45.286;9.900;2023-06-22T10:42:42;21.92;;;16.35;;
47804;SDS011;33568;45.286;9.900;2023-06-22T10:45:09;21.98;;;13.15;;
47804;SDS011;33568;45.286;9.900;2023-06-22T10:47:35;23.02;;;10.35;;
47804;SDS011;33568;45.286;9.900;2023-06-22T10:50:02;21.35;;;15.02;;
47804;SDS011;33568;45.286;9.900;2023-06-22T10:52:30;19.00;;;12.25;;
47804;SDS011;33568;45.286;9.900;2023-06-22T10:54:56;17.85;;;13.18;;
47804;SDS011;33568;45.286;9.900;2023-06-22T10:57:23;29.15;;;15.90;;
47804;SDS011;33568;45.286;9.900;2023-06-22T10:59:50;23.92;;;14.43;;
47804;SDS011;33568;45.286;9.900;2023-06-22T11:02:16;24.95;;;15.80;;
47804;SDS011;33568;45.286;9.900;2023-06-22T11:04:43;23.38;;;16.77;;
47804;SDS011;33568;45.286;9.900;2023-06-22T11:07:09;21.45;;;14.68;;
47804;SDS011;33568;45.286;9.900;2023-06-22T11:09:37;25.55;;;15.63;;
47804;SDS011;33568;45.286;9.900;2023-06-22T11:12:05;21.98;;;14.30;;
47804;SDS011;33568;45.286;9.900;2023-06-22T11:14:32;19.98;;;13.85;;
47804;SDS011;33568;45.286;9.900;2023-06-22T11:17:01;21.33;;;11.90;;
47804;SDS011;33568;45.286;9.900;2023-06-22T11:19:27;28.52;;;10.85;;
47804;SDS011;33568;45.286;9.900;2023-06-22T11:21:54;16.35;;;10.82;;
47804;SDS011;33568;45.286;9.900;2023-06-22T11:24:20;22.25;;;10.45;;
47804;SDS011;33568;45.286;9.900;2023-06-22T11:26:47;13.38;;;7.32;;
47804;SDS011;33568;45.286;9.900;2023-06-22T11:29:13;14.50;;;7.95;;
47804;SDS011;33568;45.286;9.900;2023-06-22T11:31:40;12.68;;;7.82;;
47804;SDS011;33568;45.286;9.900;2023-06-22T11:34:08;17.10;;;6.53;;
47804;SDS011;33568;45.286;9.900;2023-06-22T11:36:35;13.30;;;6.93;;
47804;SDS011;33568;45.286;9.900;2023-06-22T11:39:01;13.45;;;7.15;;
47804;SDS011;33568;45.286;9.900;2023-06-22T11:41:28;13.68;;;7.10;;
47804;SDS011;33568;45.286;9.900;2023-06-22T11:43:54;11.93;;;5.93;;
47804;SDS011;33568;45.286;9.900;2023-06-22T11:46:21;15.13;;;5.85;;
47804;SDS011;33568;45.286;9.900;2023-06-22T11:48:47;10.55;;;5.90;;
47804;SDS011;33568;45.286;9.900;2023-06-22T11:51:14;14.13;;;7.25;;
47804;SDS011;33568;45.286;9.900;2023-06-22T11:53:40;20.23;;;6.90;;
47804;SDS011;33568;45.286;9.900;2023-06-22T11:56:06;17.77;;;7.07;;
47804;SDS011;33568;45.286;9.900;2023-06-22T11:58:33;12.40;;;5.55;;
47804;SDS011;33568;45.286;9.900;2023-06-22T12:00:59;15.55;;;6.53;;
47804;SDS011;33568;45.286;9.900;2023-06-22T12:03:26;26.80;;;7.50;;
47804;SDS011;33568;45.286;9.900;2023-06-22T12:05:52;13.60;;;7.53;;
47804;SDS011;33568;45.286;9.900;2023-06-22T12:08:20;16.48;;;7.55;;
47804;SDS011;33568;45.286;9.900;2023-06-22T12:10:47;18.58;;;7.25;;
47804;SDS011;33568;45.286;9.900;2023-06-22T12:13:15;14.98;;;7.25;;
47804;SDS011;33568;45.286;9.900;2023-06-22T12:15:42;15.82;;;6.93;;
47804;SDS011;33568;45.286;9.900;2023-06-22T12:18:08;18.50;;;7.97;;
47804;SDS011;33568;45.286;9.900;2023-06-22T12:20:34;17.95;;;7.45;;
47804;SDS011;33568;45.286;9.900;2023-06-22T12:23:01;20.45;;;7.55;;
47804;SDS011;33568;45.286;9.900;2023-06-22T12:25:27;14.07;;;7.30;;
47804;SDS011;33568;45.286;9.900;2023-06-22T12:27:54;18.42;;;6.78;;
47804;SDS011;33568;45.286;9.900;2023-06-22T12:30:20;11.00;;;6.00;;
47804;SDS011;33568;45.286;9.900;2023-06-22T12:32:47;13.43;;;6.55;;
47804;SDS011;33568;45.286;9.900;2023-06-22T12:35:13;9.60;;;6.20;;
47804;SDS011;33568;45.286;9.900;2023-06-22T12:37:40;16.52;;;6.60;;
47804;SDS011;33568;45.286;9.900;2023-06-22T12:40:08;15.55;;;7.05;;
47804;SDS011;33568;45.286;9.900;2023-06-22T12:42:35;13.13;;;6.15;;
47804;SDS011;33568;45.286;9.900;2023-06-22T12:45:02;14.48;;;5.35;;
47804;SDS011;33568;45.286;9.900;2023-06-22T12:47:30;14.30;;;6.25;;
47804;SDS011;33568;45.286;9.900;2023-06-22T12:49:57;16.40;;;5.80;;
47804;SDS011;33568;45.286;9.900;2023-06-22T12:52:23;10.50;;;5.88;;
47804;SDS011;33568;45.286;9.900;2023-06-22T12:54:50;13.38;;;6.55;;
47804;SDS011;33568;45.286;9.900;2023-06-22T12:57:16;23.83;;;6.90;;
47804;SDS011;33568;45.286;9.900;2023-06-22T12:59:43;14.80;;;5.45;;
47804;SDS011;33568;45.286;9.900;2023-06-22T13:02:09;10.35;;;6.00;;
47804;SDS011;33568;45.286;9.900;2023-06-22T13:04:36;15.07;;;6.05;;
47804;SDS011;33568;45.286;9.900;2023-06-22T13:07:03;16.10;;;6.20;;
47804;SDS011;33568;45.286;9.900;2023-06-22T13:09:30;19.80;;;6.07;;
47804;SDS011;33568;45.286;9.900;2023-06-22T13:11:57;21.35;;;5.85;;
47804;SDS011;33568;45.286;9.900;2023-06-22T13:14:23;14.15;;;6.03;;
47804;SDS011;33568;45.286;9.900;2023-06-22T13:16:49;14.40;;;6.50;;
47804;SDS011;33568;45.286;9.900;2023-06-22T13:19:16;17.48;;;7.30;;
47804;SDS011;33568;45.286;9.900;2023-06-22T13:21:42;17.60;;;6.22;;
47804;SDS011;33568;45.286;9.900;2023-06-22T13:24:09;24.02;;;6.40;;
47804;SDS011;33568;45.286;9.900;2023-06-22T13:26:35;14.15;;;6.80;;
47804;SDS011;33568;45.286;9.900;2023-06-22T13:29:02;12.43;;;6.90;;
47804;SDS011;33568;45.286;9.900;2023-06-22T13:31:28;16.20;;;6.35;;
47804;SDS011;33568;45.286;9.900;2023-06-22T13:33:55;17.60;;;6.20;;
47804;SDS011;33568;45.286;9.900;2023-06-22T13:36:21;18.08;;;6.93;;
47804;SDS011;33568;45.286;9.900;2023-06-22T13:38:49;20.20;;;6.20;;
47804;SDS011;33568;45.286;9.900;2023-06-22T13:41:15;16.35;;;6.43;;
47804;SDS011;33568;45.286;9.900;2023-06-22T13:43:42;14.05;;;6.47;;
47804;SDS011;33568;45.286;9.900;2023-06-22T13:46:08;10.70;;;5.97;;
47804;SDS011;33568;45.286;9.900;2023-06-22T13:48:35;14.85;;;5.95;;
47804;SDS011;33568;45.286;9.900;2023-06-22T13:51:01;16.30;;;6.22;;
47804;SDS011;33568;45.286;9.900;2023-06-22T13:53:28;12.27;;;6.20;;
47804;SDS011;33568;45.286;9.900;2023-06-22T13:55:54;11.60;;;6.30;;
47804;SDS011;33568;45.286;9.900;2023-06-22T13:58:21;17.85;;;6.07;;
47804;SDS011;33568;45.286;9.900;2023-06-22T14:00:48;19.08;;;6.05;;
47804;SDS011;33568;45.286;9.900;2023-06-22T14:03:15;14.95;;;6.25;;
47804;SDS011;33568;45.286;9.900;2023-06-22T14:05:44;23.35;;;6.45;;
47804;SDS011;33568;45.286;9.900;2023-06-22T14:08:11;17.67;;;6.25;;
47804;SDS011;33568;45.286;9.900;2023-06-22T14:10:37;12.50;;;5.95;;
47804;SDS011;33568;45.286;9.900;2023-06-22T14:13:04;9.90;;;6.15;;
47804;SDS011;33568;45.286;9.900;2023-06-22T14:15:31;9.30;;;6.40;;
47804;SDS011;33568;45.286;9.900;2023-06-22T14:17:58;21.75;;;6.63;;
47804;SDS011;33568;45.286;9.900;2023-06-22T14:20:24;16.25;;;6.20;;
47804;SDS011;33568;45.286;9.900;2023-06-22T14:22:51;22.60;;;7.95;;
47804;SDS011;33568;45.286;9.900;2023-06-22T14:25:17;26.95;;;9.00;;
47804;SDS011;33568;45.286;9.900;2023-06-22T14:27:44;15.65;;;5.95;;
47804;SDS011;33568;45.286;9.900;2023-06-22T14:30:10;12.63;;;6.80;;
47804;SDS011;33568;45.286;9.900;2023-06-22T14:32:37;14.93;;;6.15;;
47804;SDS011;33568;45.286;9.900;2023-06-22T14:35:03;12.82;;;5.97;;
47804;SDS011;33568;45.286;9.900;2023-06-22T14:37:30;14.27;;;6.57;;
47804;SDS011;33568;45.286;9.900;2023-06-22T14:39:56;9.90;;;5.60;;
47804;SDS011;33568;45.286;9.900;2023-06-22T14:42:23;13.30;;;5.57;;
47804;SDS011;33568;45.286;9.900;2023-06-22T14:44:52;15.88;;;6.10;;
47804;SDS011;33568;45.286;9.900;2023-06-22T14:47:18;14.23;;;5.18;;